sensor_id;sensor_type;location;lat;lon;timestamp;P1;durP1;ratioP1;P2;durP2;ratioP2
42834;SDS011;29335;50.526;30.458;2022-11-20T00:00:34;20.08;;;13.40;;
42834;SDS011;29335;50.526;30.458;2022-11-20T00:03:00;21.50;;;14.90;;
42834;SDS011;29335;50.526;30.458;2022-11-20T00:05:25;21.30;;;14.18;;
42834;SDS011;29335;50.526;30.458;2022-11-20T00:07:51;21.73;;;14.52;;
42834;SDS011;29335;50.526;30.458;2022-11-20T00:10:17;42.70;;;28.85;;
42834;SDS011;29335;50.526;30.458;2022-11-20T00:12:42;32.17;;;22.73;;
42834;SDS011;29335;50.526;30.458;2022-11-20T00:15:08;23.95;;;17.08;;
42834;SDS011;29335;50.526;30.458;2022-11-20T00:17:35;25.20;;;17.73;;
42834;SDS011;29335;50.526;30.458;2022-11-20T00:20:00;25.27;;;17.88;;
42834;SDS011;29335;50.526;30.458;2022-11-20T00:22:26;25.33;;;16.27;;
42834;SDS011;29335;50.526;30.458;2022-11-20T00:24:51;26.00;;;17.40;;
42834;SDS011;29335;50.526;30.458;2022-11-20T00:27:17;26.02;;;17.45;;
42834;SDS011;29335;50.526;30.458;2022-11-20T00:29:43;27.52;;;17.45;;
42834;SDS011;29335;50.526;30.458;2022-11-20T00:32:08;27.27;;;17.58;;
42834;SDS011;29335;50.526;30.458;2022-11-20T00:34:34;31.02;;;18.45;;
42834;SDS011;29335;50.526;30.458;2022-11-20T00:36:59;30.13;;;18.70;;
42834;SDS011;29335;50.526;30.458;2022-11-20T00:39:25;28.98;;;19.02;;
42834;SDS011;29335;50.526;30.458;2022-11-20T00:41:51;29.05;;;19.55;;
42834;SDS011;29335;50.526;30.458;2022-11-20T00:44:16;26.70;;;19.00;;
42834;SDS011;29335;50.526;30.458;2022-11-20T00:46:42;27.95;;;17.83;;
42834;SDS011;29335;50.526;30.458;2022-11-20T00:49:07;26.27;;;17.30;;
42834;SDS011;29335;50.526;30.458;2022-11-20T00:51:33;25.77;;;17.48;;
42834;SDS011;29335;50.526;30.458;2022-11-20T00:53:59;26.13;;;18.00;;
42834;SDS011;29335;50.526;30.458;2022-11-20T00:56:24;24.60;;;17.35;;
42834;SDS011;29335;50.526;30.458;2022-11-20T00:58:50;25.33;;;17.40;;
42834;SDS011;29335;50.526;30.458;2022-11-20T01:01:25;27.53;;;17.30;;
42834;SDS011;29335;50.526;30.458;2022-11-20T01:03:52;30.73;;;18.45;;
42834;SDS011;29335;50.526;30.458;2022-11-20T01:06:27;25.83;;;18.13;;
42834;SDS011;29335;50.526;30.458;2022-11-20T01:08:58;29.23;;;18.63;;
42834;SDS011;29335;50.526;30.458;2022-11-20T01:11:26;28.13;;;18.75;;
42834;SDS011;29335;50.526;30.458;2022-11-20T01:13:59;28.17;;;17.80;;
42834;SDS011;29335;50.526;30.458;2022-11-20T01:16:31;25.25;;;18.15;;
42834;SDS011;29335;50.526;30.458;2022-11-20T01:18:59;28.25;;;19.13;;
42834;SDS011;29335;50.526;30.458;2022-11-20T01:21:27;29.58;;;18.30;;
42834;SDS011;29335;50.526;30.458;2022-11-20T01:23:54;32.72;;;20.27;;
42834;SDS011;29335;50.526;30.458;2022-11-20T01:26:22;28.48;;;20.05;;
42834;SDS011;29335;50.526;30.458;2022-11-20T01:28:50;31.02;;;19.75;;
42834;SDS011;29335;50.526;30.458;2022-11-20T01:31:17;29.30;;;18.45;;
42834;SDS011;29335;50.526;30.458;2022-11-20T01:33:47;28.42;;;18.75;;
42834;SDS011;29335;50.526;30.458;2022-11-20T01:36:14;29.77;;;19.60;;
42834;SDS011;29335;50.526;30.458;2022-11-20T01:38:41;28.52;;;18.10;;
42834;SDS011;29335;50.526;30.458;2022-11-20T01:41:08;28.63;;;19.05;;
42834;SDS011;29335;50.526;30.458;2022-11-20T01:43:35;29.70;;;19.30;;
42834;SDS011;29335;50.526;30.458;2022-11-20T01:46:17;30.70;;;19.67;;
42834;SDS011;29335;50.526;30.458;2022-11-20T01:48:48;31.10;;;19.80;;
42834;SDS011;29335;50.526;30.458;2022-11-20T01:51:27;32.10;;;18.98;;
42834;SDS011;29335;50.526;30.458;2022-11-20T01:54:05;29.42;;;19.10;;
42834;SDS011;29335;50.526;30.458;2022-11-20T01:56:37;30.17;;;20.38;;
42834;SDS011;29335;50.526;30.458;2022-11-20T01:59:06;30.20;;;20.50;;
42834;SDS011;29335;50.526;30.458;2022-11-20T02:01:33;27.73;;;19.02;;
42834;SDS011;29335;50.526;30.458;2022-11-20T02:03:59;28.80;;;19.58;;
42834;SDS011;29335;50.526;30.458;2022-11-20T02:06:27;28.63;;;19.90;;
42834;SDS011;29335;50.526;30.458;2022-11-20T02:08:57;33.20;;;20.35;;
42834;SDS011;29335;50.526;30.458;2022-11-20T02:11:23;30.77;;;20.15;;
42834;SDS011;29335;50.526;30.458;2022-11-20T02:13:48;28.35;;;20.42;;
42834;SDS011;29335;50.526;30.458;2022-11-20T02:18:43;32.55;;;21.20;;
42834;SDS011;29335;50.526;30.458;2022-11-20T02:26:33;30.77;;;20.02;;
42834;SDS011;29335;50.526;30.458;2022-11-20T02:29:03;31.83;;;20.48;;
42834;SDS011;29335;50.526;30.458;2022-11-20T02:31:28;31.58;;;21.20;;
42834;SDS011;29335;50.526;30.458;2022-11-20T02:33:58;33.60;;;21.48;;
42834;SDS011;29335;50.526;30.458;2022-11-20T02:36:25;31.80;;;20.83;;
42834;SDS011;29335;50.526;30.458;2022-11-20T02:38:52;29.40;;;20.42;;
42834;SDS011;29335;50.526;30.458;2022-11-20T02:41:18;33.95;;;21.88;;
42834;SDS011;29335;50.526;30.458;2022-11-20T02:43:44;31.75;;;21.40;;
42834;SDS011;29335;50.526;30.458;2022-11-20T02:46:10;33.03;;;21.10;;
42834;SDS011;29335;50.526;30.458;2022-11-20T02:48:35;33.65;;;21.25;;
42834;SDS011;29335;50.526;30.458;2022-11-20T02:51:01;33.15;;;21.55;;
42834;SDS011;29335;50.526;30.458;2022-11-20T02:53:27;31.73;;;21.90;;
42834;SDS011;29335;50.526;30.458;2022-11-20T02:55:53;33.38;;;21.92;;
42834;SDS011;29335;50.526;30.458;2022-11-20T02:58:18;32.05;;;20.48;;
42834;SDS011;29335;50.526;30.458;2022-11-20T03:00:44;34.15;;;21.90;;
42834;SDS011;29335;50.526;30.458;2022-11-20T03:03:09;34.38;;;22.38;;
42834;SDS011;29335;50.526;30.458;2022-11-20T03:05:35;35.40;;;21.98;;
42834;SDS011;29335;50.526;30.458;2022-11-20T03:08:00;35.05;;;23.52;;
42834;SDS011;29335;50.526;30.458;2022-11-20T03:10:26;33.92;;;23.00;;
42834;SDS011;29335;50.526;30.458;2022-11-20T03:12:52;35.30;;;23.17;;
42834;SDS011;29335;50.526;30.458;2022-11-20T03:15:22;37.80;;;22.90;;
42834;SDS011;29335;50.526;30.458;2022-11-20T03:17:48;36.55;;;23.45;;
42834;SDS011;29335;50.526;30.458;2022-11-20T03:20:14;34.97;;;23.00;;
42834;SDS011;29335;50.526;30.458;2022-11-20T03:22:39;31.80;;;22.15;;
42834;SDS011;29335;50.526;30.458;2022-11-20T03:25:05;35.05;;;21.90;;
42834;SDS011;29335;50.526;30.458;2022-11-20T03:27:34;37.83;;;23.27;;
42834;SDS011;29335;50.526;30.458;2022-11-20T03:30:00;38.63;;;23.08;;
42834;SDS011;29335;50.526;30.458;2022-11-20T03:32:26;35.88;;;22.83;;
42834;SDS011;29335;50.526;30.458;2022-11-20T03:34:51;37.67;;;23.73;;
42834;SDS011;29335;50.526;30.458;2022-11-20T03:37:17;36.05;;;22.95;;
42834;SDS011;29335;50.526;30.458;2022-11-20T03:39:43;34.92;;;21.42;;
42834;SDS011;29335;50.526;30.458;2022-11-20T03:42:08;34.65;;;22.92;;
42834;SDS011;29335;50.526;30.458;2022-11-20T03:44:54;31.45;;;20.92;;
42834;SDS011;29335;50.526;30.458;2022-11-20T03:47:20;35.00;;;22.50;;
42834;SDS011;29335;50.526;30.458;2022-11-20T03:49:46;34.90;;;22.58;;
42834;SDS011;29335;50.526;30.458;2022-11-20T03:52:11;32.80;;;21.90;;
42834;SDS011;29335;50.526;30.458;2022-11-20T03:54:37;32.10;;;21.92;;
42834;SDS011;29335;50.526;30.458;2022-11-20T03:57:02;33.50;;;23.58;;
42834;SDS011;29335;50.526;30.458;2022-11-20T03:59:28;37.92;;;24.27;;
42834;SDS011;29335;50.526;30.458;2022-11-20T04:01:53;33.38;;;22.25;;
42834;SDS011;29335;50.526;30.458;2022-11-20T04:04:19;40.80;;;25.35;;
42834;SDS011;29335;50.526;30.458;2022-11-20T04:06:44;33.25;;;22.92;;
42834;SDS011;29335;50.526;30.458;2022-11-20T04:09:10;32.10;;;21.05;;
42834;SDS011;29335;50.526;30.458;2022-11-20T04:11:36;35.30;;;22.45;;
42834;SDS011;29335;50.526;30.458;2022-11-20T04:14:05;37.35;;;23.50;;
42834;SDS011;29335;50.526;30.458;2022-11-20T04:16:36;28.60;;;19.75;;
42834;SDS011;29335;50.526;30.458;2022-11-20T04:19:03;31.92;;;21.08;;
42834;SDS011;29335;50.526;30.458;2022-11-20T04:21:31;36.45;;;23.95;;
42834;SDS011;29335;50.526;30.458;2022-11-20T04:23:57;29.02;;;19.42;;
42834;SDS011;29335;50.526;30.458;2022-11-20T04:26:24;38.42;;;23.48;;
42834;SDS011;29335;50.526;30.458;2022-11-20T04:28:51;37.05;;;25.02;;
42834;SDS011;29335;50.526;30.458;2022-11-20T04:31:18;37.45;;;23.60;;
42834;SDS011;29335;50.526;30.458;2022-11-20T04:33:47;37.45;;;24.45;;
42834;SDS011;29335;50.526;30.458;2022-11-20T04:36:15;37.60;;;24.10;;
42834;SDS011;29335;50.526;30.458;2022-11-20T04:38:44;34.92;;;23.60;;
42834;SDS011;29335;50.526;30.458;2022-11-20T04:41:12;39.53;;;25.67;;
42834;SDS011;29335;50.526;30.458;2022-11-20T04:43:41;39.17;;;25.42;;
42834;SDS011;29335;50.526;30.458;2022-11-20T04:46:06;36.05;;;24.55;;
42834;SDS011;29335;50.526;30.458;2022-11-20T04:48:32;39.55;;;25.08;;
42834;SDS011;29335;50.526;30.458;2022-11-20T04:51:02;41.75;;;26.20;;
42834;SDS011;29335;50.526;30.458;2022-11-20T04:53:30;41.70;;;25.65;;
42834;SDS011;29335;50.526;30.458;2022-11-20T04:56:00;38.80;;;25.95;;
42834;SDS011;29335;50.526;30.458;2022-11-20T04:58:26;40.92;;;26.58;;
42834;SDS011;29335;50.526;30.458;2022-11-20T05:00:52;39.08;;;27.02;;
42834;SDS011;29335;50.526;30.458;2022-11-20T05:03:18;42.80;;;27.30;;
42834;SDS011;29335;50.526;30.458;2022-11-20T05:05:43;45.55;;;31.55;;
42834;SDS011;29335;50.526;30.458;2022-11-20T05:08:09;44.58;;;31.90;;
42834;SDS011;29335;50.526;30.458;2022-11-20T05:10:34;46.45;;;29.83;;
42834;SDS011;29335;50.526;30.458;2022-11-20T05:13:00;42.20;;;28.17;;
42834;SDS011;29335;50.526;30.458;2022-11-20T05:15:26;40.05;;;28.15;;
42834;SDS011;29335;50.526;30.458;2022-11-20T05:17:51;47.50;;;29.63;;
42834;SDS011;29335;50.526;30.458;2022-11-20T05:20:18;50.72;;;34.38;;
42834;SDS011;29335;50.526;30.458;2022-11-20T05:22:44;45.40;;;30.60;;
42834;SDS011;29335;50.526;30.458;2022-11-20T05:25:12;40.53;;;26.20;;
42834;SDS011;29335;50.526;30.458;2022-11-20T05:27:37;47.25;;;28.45;;
42834;SDS011;29335;50.526;30.458;2022-11-20T05:30:04;45.83;;;27.67;;
42834;SDS011;29335;50.526;30.458;2022-11-20T05:32:30;34.15;;;24.27;;
42834;SDS011;29335;50.526;30.458;2022-11-20T05:34:56;39.72;;;24.92;;
42834;SDS011;29335;50.526;30.458;2022-11-20T05:37:22;38.50;;;24.55;;
42834;SDS011;29335;50.526;30.458;2022-11-20T05:39:47;35.03;;;23.38;;
42834;SDS011;29335;50.526;30.458;2022-11-20T05:42:13;38.38;;;26.52;;
42834;SDS011;29335;50.526;30.458;2022-11-20T05:45:00;39.97;;;26.48;;
42834;SDS011;29335;50.526;30.458;2022-11-20T05:47:28;38.13;;;26.35;;
42834;SDS011;29335;50.526;30.458;2022-11-20T05:49:56;39.38;;;25.83;;
42834;SDS011;29335;50.526;30.458;2022-11-20T05:52:22;41.03;;;26.65;;
42834;SDS011;29335;50.526;30.458;2022-11-20T05:54:47;41.65;;;28.02;;
42834;SDS011;29335;50.526;30.458;2022-11-20T05:57:13;41.15;;;26.75;;
42834;SDS011;29335;50.526;30.458;2022-11-20T05:59:39;43.90;;;28.35;;
42834;SDS011;29335;50.526;30.458;2022-11-20T06:02:05;44.45;;;28.67;;
42834;SDS011;29335;50.526;30.458;2022-11-20T06:04:30;46.38;;;31.15;;
42834;SDS011;29335;50.526;30.458;2022-11-20T06:06:56;42.75;;;29.27;;
42834;SDS011;29335;50.526;30.458;2022-11-20T06:09:21;45.15;;;28.73;;
42834;SDS011;29335;50.526;30.458;2022-11-20T06:11:47;46.35;;;29.55;;
42834;SDS011;29335;50.526;30.458;2022-11-20T06:14:12;44.35;;;30.08;;
42834;SDS011;29335;50.526;30.458;2022-11-20T06:16:38;42.33;;;29.92;;
42834;SDS011;29335;50.526;30.458;2022-11-20T06:19:04;43.10;;;29.65;;
42834;SDS011;29335;50.526;30.458;2022-11-20T06:21:29;45.00;;;27.15;;
42834;SDS011;29335;50.526;30.458;2022-11-20T06:23:55;41.97;;;26.92;;
42834;SDS011;29335;50.526;30.458;2022-11-20T06:26:24;44.97;;;28.23;;
42834;SDS011;29335;50.526;30.458;2022-11-20T06:28:52;41.53;;;28.00;;
42834;SDS011;29335;50.526;30.458;2022-11-20T06:31:19;41.03;;;28.90;;
42834;SDS011;29335;50.526;30.458;2022-11-20T06:33:47;43.00;;;27.88;;
42834;SDS011;29335;50.526;30.458;2022-11-20T06:36:13;38.83;;;27.65;;
42834;SDS011;29335;50.526;30.458;2022-11-20T06:38:40;41.55;;;28.20;;
42834;SDS011;29335;50.526;30.458;2022-11-20T06:41:08;40.83;;;27.17;;
42834;SDS011;29335;50.526;30.458;2022-11-20T06:43:37;39.30;;;26.95;;
42834;SDS011;29335;50.526;30.458;2022-11-20T06:46:02;38.90;;;26.02;;
42834;SDS011;29335;50.526;30.458;2022-11-20T06:48:29;40.50;;;27.02;;
42834;SDS011;29335;50.526;30.458;2022-11-20T06:50:55;39.15;;;26.63;;
42834;SDS011;29335;50.526;30.458;2022-11-20T06:53:22;41.03;;;27.80;;
42834;SDS011;29335;50.526;30.458;2022-11-20T06:55:48;41.85;;;28.17;;
42834;SDS011;29335;50.526;30.458;2022-11-20T06:58:14;38.45;;;25.70;;
42834;SDS011;29335;50.526;30.458;2022-11-20T07:00:40;41.65;;;27.10;;
42834;SDS011;29335;50.526;30.458;2022-11-20T07:03:07;37.60;;;24.63;;
42834;SDS011;29335;50.526;30.458;2022-11-20T07:05:35;37.55;;;24.92;;
42834;SDS011;29335;50.526;30.458;2022-11-20T07:08:01;35.88;;;25.38;;
42834;SDS011;29335;50.526;30.458;2022-11-20T07:10:27;39.70;;;26.08;;
42834;SDS011;29335;50.526;30.458;2022-11-20T07:12:53;35.80;;;23.60;;
42834;SDS011;29335;50.526;30.458;2022-11-20T07:15:19;37.60;;;25.17;;
42834;SDS011;29335;50.526;30.458;2022-11-20T07:17:46;34.15;;;24.13;;
42834;SDS011;29335;50.526;30.458;2022-11-20T07:20:13;34.30;;;23.75;;
42834;SDS011;29335;50.526;30.458;2022-11-20T07:22:39;31.20;;;22.48;;
42834;SDS011;29335;50.526;30.458;2022-11-20T07:25:05;37.40;;;23.10;;
42834;SDS011;29335;50.526;30.458;2022-11-20T07:27:31;29.90;;;21.05;;
42834;SDS011;29335;50.526;30.458;2022-11-20T07:29:57;26.48;;;20.55;;
42834;SDS011;29335;50.526;30.458;2022-11-20T07:32:23;24.45;;;18.05;;
42834;SDS011;29335;50.526;30.458;2022-11-20T07:34:48;20.52;;;16.58;;
42834;SDS011;29335;50.526;30.458;2022-11-20T07:37:14;25.55;;;18.85;;
42834;SDS011;29335;50.526;30.458;2022-11-20T07:39:40;25.65;;;19.20;;
42834;SDS011;29335;50.526;30.458;2022-11-20T07:42:06;26.77;;;18.63;;
42834;SDS011;29335;50.526;30.458;2022-11-20T07:44:33;26.10;;;19.45;;
42834;SDS011;29335;50.526;30.458;2022-11-20T07:46:59;26.45;;;18.85;;
42834;SDS011;29335;50.526;30.458;2022-11-20T07:49:25;25.90;;;18.88;;
42834;SDS011;29335;50.526;30.458;2022-11-20T07:51:51;29.85;;;19.73;;
42834;SDS011;29335;50.526;30.458;2022-11-20T07:54:18;24.63;;;18.25;;
42834;SDS011;29335;50.526;30.458;2022-11-20T07:56:47;26.02;;;18.95;;
42834;SDS011;29335;50.526;30.458;2022-11-20T07:59:14;29.52;;;21.08;;
42834;SDS011;29335;50.526;30.458;2022-11-20T08:01:40;23.38;;;16.23;;
42834;SDS011;29335;50.526;30.458;2022-11-20T08:04:07;21.13;;;15.95;;
42834;SDS011;29335;50.526;30.458;2022-11-20T08:06:32;21.00;;;14.80;;
42834;SDS011;29335;50.526;30.458;2022-11-20T08:08:58;19.92;;;14.68;;
42834;SDS011;29335;50.526;30.458;2022-11-20T08:11:24;22.20;;;16.48;;
42834;SDS011;29335;50.526;30.458;2022-11-20T08:14:08;23.30;;;16.55;;
42834;SDS011;29335;50.526;30.458;2022-11-20T08:16:41;21.33;;;16.25;;
42834;SDS011;29335;50.526;30.458;2022-11-20T08:19:12;19.10;;;13.88;;
42834;SDS011;29335;50.526;30.458;2022-11-20T08:21:40;22.50;;;16.60;;
42834;SDS011;29335;50.526;30.458;2022-11-20T08:24:06;23.92;;;16.30;;
42834;SDS011;29335;50.526;30.458;2022-11-20T08:26:33;19.80;;;14.90;;
42834;SDS011;29335;50.526;30.458;2022-11-20T08:29:00;19.25;;;13.65;;
42834;SDS011;29335;50.526;30.458;2022-11-20T08:31:26;16.15;;;13.18;;
42834;SDS011;29335;50.526;30.458;2022-11-20T08:33:52;18.73;;;14.07;;
42834;SDS011;29335;50.526;30.458;2022-11-20T08:36:22;21.30;;;15.27;;
42834;SDS011;29335;50.526;30.458;2022-11-20T08:38:52;20.65;;;15.02;;
42834;SDS011;29335;50.526;30.458;2022-11-20T08:41:19;20.90;;;15.37;;
42834;SDS011;29335;50.526;30.458;2022-11-20T08:43:56;20.13;;;15.23;;
42834;SDS011;29335;50.526;30.458;2022-11-20T08:46:25;22.05;;;16.52;;
42834;SDS011;29335;50.526;30.458;2022-11-20T08:48:51;22.02;;;15.45;;
42834;SDS011;29335;50.526;30.458;2022-11-20T08:51:17;20.73;;;16.33;;
42834;SDS011;29335;50.526;30.458;2022-11-20T08:53:44;22.92;;;16.75;;
42834;SDS011;29335;50.526;30.458;2022-11-20T08:56:10;19.92;;;15.82;;
42834;SDS011;29335;50.526;30.458;2022-11-20T08:58:36;20.90;;;16.20;;
42834;SDS011;29335;50.526;30.458;2022-11-20T09:01:03;20.92;;;15.52;;
42834;SDS011;29335;50.526;30.458;2022-11-20T09:03:29;22.05;;;16.35;;
42834;SDS011;29335;50.526;30.458;2022-11-20T09:06:05;21.27;;;16.25;;
42834;SDS011;29335;50.526;30.458;2022-11-20T09:08:32;21.25;;;15.93;;
42834;SDS011;29335;50.526;30.458;2022-11-20T09:10:58;24.10;;;17.17;;
42834;SDS011;29335;50.526;30.458;2022-11-20T09:13:25;22.20;;;16.92;;
42834;SDS011;29335;50.526;30.458;2022-11-20T09:16:00;22.15;;;16.80;;
42834;SDS011;29335;50.526;30.458;2022-11-20T09:18:31;27.15;;;19.80;;
42834;SDS011;29335;50.526;30.458;2022-11-20T09:21:01;26.85;;;18.98;;
42834;SDS011;29335;50.526;30.458;2022-11-20T09:23:30;25.90;;;18.83;;
42834;SDS011;29335;50.526;30.458;2022-11-20T09:25:57;28.17;;;19.88;;
42834;SDS011;29335;50.526;30.458;2022-11-20T09:28:25;25.15;;;18.27;;
42834;SDS011;29335;50.526;30.458;2022-11-20T09:30:51;21.98;;;15.82;;
42834;SDS011;29335;50.526;30.458;2022-11-20T09:33:17;20.95;;;16.10;;
42834;SDS011;29335;50.526;30.458;2022-11-20T09:35:43;24.00;;;17.50;;
42834;SDS011;29335;50.526;30.458;2022-11-20T09:38:09;26.45;;;18.75;;
42834;SDS011;29335;50.526;30.458;2022-11-20T09:40:37;22.65;;;17.38;;
42834;SDS011;29335;50.526;30.458;2022-11-20T09:43:28;23.55;;;15.93;;
42834;SDS011;29335;50.526;30.458;2022-11-20T09:46:20;23.55;;;17.52;;
42834;SDS011;29335;50.526;30.458;2022-11-20T09:52:04;28.85;;;20.77;;
42834;SDS011;29335;50.526;30.458;2022-11-20T09:54:51;24.95;;;17.38;;
42834;SDS011;29335;50.526;30.458;2022-11-20T09:57:21;23.40;;;18.75;;
42834;SDS011;29335;50.526;30.458;2022-11-20T10:00:00;25.00;;;19.02;;
42834;SDS011;29335;50.526;30.458;2022-11-20T10:02:28;22.65;;;16.73;;
42834;SDS011;29335;50.526;30.458;2022-11-20T10:05:10;21.05;;;15.98;;
42834;SDS011;29335;50.526;30.458;2022-11-20T10:10:46;21.55;;;15.63;;
42834;SDS011;29335;50.526;30.458;2022-11-20T10:18:53;24.17;;;17.90;;
42834;SDS011;29335;50.526;30.458;2022-11-20T10:29:39;22.83;;;17.55;;
42834;SDS011;29335;50.526;30.458;2022-11-20T10:32:14;19.77;;;15.20;;
42834;SDS011;29335;50.526;30.458;2022-11-20T10:37:22;23.30;;;18.13;;
42834;SDS011;29335;50.526;30.458;2022-11-20T10:39:53;23.45;;;17.67;;
42834;SDS011;29335;50.526;30.458;2022-11-20T10:42:28;23.45;;;17.85;;
42834;SDS011;29335;50.526;30.458;2022-11-20T10:47:52;25.25;;;19.27;;
42834;SDS011;29335;50.526;30.458;2022-11-20T10:50:25;23.23;;;16.45;;
42834;SDS011;29335;50.526;30.458;2022-11-20T10:55:56;27.17;;;20.83;;
42834;SDS011;29335;50.526;30.458;2022-11-20T11:01:39;22.88;;;18.35;;
42834;SDS011;29335;50.526;30.458;2022-11-20T11:04:07;27.50;;;19.55;;
42834;SDS011;29335;50.526;30.458;2022-11-20T11:07:07;24.55;;;19.38;;
42834;SDS011;29335;50.526;30.458;2022-11-20T11:09:49;30.60;;;21.80;;
42834;SDS011;29335;50.526;30.458;2022-11-20T11:12:17;25.08;;;18.63;;
42834;SDS011;29335;50.526;30.458;2022-11-20T11:14:54;25.88;;;20.10;;
42834;SDS011;29335;50.526;30.458;2022-11-20T11:17:31;24.48;;;17.27;;
42834;SDS011;29335;50.526;30.458;2022-11-20T11:22:42;25.48;;;18.98;;
42834;SDS011;29335;50.526;30.458;2022-11-20T11:25:22;24.17;;;18.83;;
42834;SDS011;29335;50.526;30.458;2022-11-20T11:27:49;25.85;;;18.30;;
42834;SDS011;29335;50.526;30.458;2022-11-20T11:30:16;24.17;;;19.75;;
42834;SDS011;29335;50.526;30.458;2022-11-20T11:32:43;27.30;;;19.92;;
42834;SDS011;29335;50.526;30.458;2022-11-20T11:35:20;17.92;;;13.63;;
42834;SDS011;29335;50.526;30.458;2022-11-20T11:37:48;19.58;;;15.70;;
42834;SDS011;29335;50.526;30.458;2022-11-20T11:40:16;25.23;;;20.23;;
42834;SDS011;29335;50.526;30.458;2022-11-20T11:42:44;24.17;;;19.67;;
42834;SDS011;29335;50.526;30.458;2022-11-20T11:45:16;23.55;;;18.70;;
42834;SDS011;29335;50.526;30.458;2022-11-20T11:47:47;25.48;;;19.23;;
42834;SDS011;29335;50.526;30.458;2022-11-20T11:50:26;23.13;;;20.17;;
42834;SDS011;29335;50.526;30.458;2022-11-20T11:53:09;25.55;;;18.20;;
42834;SDS011;29335;50.526;30.458;2022-11-20T11:55:43;26.30;;;19.67;;
42834;SDS011;29335;50.526;30.458;2022-11-20T12:03:52;22.38;;;16.17;;
42834;SDS011;29335;50.526;30.458;2022-11-20T12:06:26;20.40;;;16.73;;
42834;SDS011;29335;50.526;30.458;2022-11-20T12:08:58;22.70;;;16.98;;
42834;SDS011;29335;50.526;30.458;2022-11-20T12:11:32;18.33;;;14.02;;
42834;SDS011;29335;50.526;30.458;2022-11-20T12:14:25;23.08;;;14.73;;
42834;SDS011;29335;50.526;30.458;2022-11-20T12:16:58;19.60;;;16.17;;
42834;SDS011;29335;50.526;30.458;2022-11-20T12:19:25;22.45;;;19.02;;
42834;SDS011;29335;50.526;30.458;2022-11-20T12:22:00;23.08;;;18.65;;
42834;SDS011;29335;50.526;30.458;2022-11-20T12:24:49;23.50;;;16.25;;
42834;SDS011;29335;50.526;30.458;2022-11-20T12:30:19;20.92;;;16.08;;
42834;SDS011;29335;50.526;30.458;2022-11-20T12:40:48;20.42;;;14.48;;
42834;SDS011;29335;50.526;30.458;2022-11-20T12:43:30;24.40;;;19.77;;
42834;SDS011;29335;50.526;30.458;2022-11-20T13:00:11;21.92;;;15.88;;
42834;SDS011;29335;50.526;30.458;2022-11-20T13:05:13;23.88;;;16.55;;
42834;SDS011;29335;50.526;30.458;2022-11-20T13:07:40;21.88;;;15.52;;
42834;SDS011;29335;50.526;30.458;2022-11-20T13:10:14;24.02;;;16.30;;
42834;SDS011;29335;50.526;30.458;2022-11-20T13:12:51;19.80;;;15.18;;
42834;SDS011;29335;50.526;30.458;2022-11-20T13:15:44;22.67;;;16.25;;
42834;SDS011;29335;50.526;30.458;2022-11-20T13:18:12;29.15;;;20.75;;
42834;SDS011;29335;50.526;30.458;2022-11-20T13:20:42;22.55;;;16.10;;
42834;SDS011;29335;50.526;30.458;2022-11-20T13:23:09;29.48;;;22.85;;
42834;SDS011;29335;50.526;30.458;2022-11-20T13:25:36;32.13;;;22.35;;
42834;SDS011;29335;50.526;30.458;2022-11-20T13:28:04;26.83;;;16.25;;
42834;SDS011;29335;50.526;30.458;2022-11-20T13:30:31;26.23;;;18.30;;
42834;SDS011;29335;50.526;30.458;2022-11-20T13:32:57;23.60;;;16.98;;
42834;SDS011;29335;50.526;30.458;2022-11-20T13:35:31;29.73;;;24.05;;
42834;SDS011;29335;50.526;30.458;2022-11-20T13:38:01;23.15;;;17.42;;
42834;SDS011;29335;50.526;30.458;2022-11-20T13:40:36;19.73;;;14.43;;
42834;SDS011;29335;50.526;30.458;2022-11-20T13:45:59;23.17;;;17.38;;
42834;SDS011;29335;50.526;30.458;2022-11-20T13:48:29;24.00;;;17.15;;
42834;SDS011;29335;50.526;30.458;2022-11-20T13:54:05;22.55;;;18.02;;
42834;SDS011;29335;50.526;30.458;2022-11-20T13:56:58;20.38;;;15.35;;
42834;SDS011;29335;50.526;30.458;2022-11-20T13:59:39;19.83;;;14.50;;
42834;SDS011;29335;50.526;30.458;2022-11-20T14:02:25;16.35;;;12.60;;
42834;SDS011;29335;50.526;30.458;2022-11-20T14:04:53;23.40;;;16.58;;
42834;SDS011;29335;50.526;30.458;2022-11-20T14:07:25;18.50;;;13.88;;
42834;SDS011;29335;50.526;30.458;2022-11-20T14:09:57;23.50;;;15.75;;
42834;SDS011;29335;50.526;30.458;2022-11-20T14:12:27;15.55;;;12.40;;
42834;SDS011;29335;50.526;30.458;2022-11-20T14:14:55;24.63;;;17.25;;
42834;SDS011;29335;50.526;30.458;2022-11-20T14:17:29;24.50;;;17.58;;
42834;SDS011;29335;50.526;30.458;2022-11-20T14:20:04;18.10;;;13.38;;
42834;SDS011;29335;50.526;30.458;2022-11-20T14:22:36;23.02;;;16.45;;
42834;SDS011;29335;50.526;30.458;2022-11-20T14:27:42;25.05;;;19.17;;
42834;SDS011;29335;50.526;30.458;2022-11-20T14:30:14;25.35;;;17.70;;
42834;SDS011;29335;50.526;30.458;2022-11-20T14:32:42;22.30;;;16.67;;
42834;SDS011;29335;50.526;30.458;2022-11-20T14:35:13;21.38;;;16.17;;
42834;SDS011;29335;50.526;30.458;2022-11-20T14:37:45;28.80;;;20.48;;
42834;SDS011;29335;50.526;30.458;2022-11-20T14:42:51;23.80;;;17.50;;
42834;SDS011;29335;50.526;30.458;2022-11-20T14:45:17;27.65;;;18.35;;
42834;SDS011;29335;50.526;30.458;2022-11-20T14:47:44;23.35;;;17.40;;
42834;SDS011;29335;50.526;30.458;2022-11-20T14:50:22;31.25;;;21.58;;
42834;SDS011;29335;50.526;30.458;2022-11-20T14:52:55;19.85;;;14.73;;
42834;SDS011;29335;50.526;30.458;2022-11-20T14:55:31;30.13;;;20.27;;
42834;SDS011;29335;50.526;30.458;2022-11-20T14:58:06;31.77;;;21.67;;
42834;SDS011;29335;50.526;30.458;2022-11-20T15:01:07;26.65;;;17.63;;
42834;SDS011;29335;50.526;30.458;2022-11-20T15:05:59;21.80;;;14.80;;
42834;SDS011;29335;50.526;30.458;2022-11-20T15:08:25;23.67;;;16.55;;
42834;SDS011;29335;50.526;30.458;2022-11-20T15:10:51;18.52;;;13.43;;
42834;SDS011;29335;50.526;30.458;2022-11-20T15:13:51;18.20;;;11.73;;
42834;SDS011;29335;50.526;30.458;2022-11-20T15:16:18;19.30;;;15.25;;
42834;SDS011;29335;50.526;30.458;2022-11-20T15:18:45;23.27;;;16.17;;
42834;SDS011;29335;50.526;30.458;2022-11-20T15:21:12;26.70;;;20.02;;
42834;SDS011;29335;50.526;30.458;2022-11-20T15:23:39;21.63;;;16.98;;
42834;SDS011;29335;50.526;30.458;2022-11-20T15:26:05;26.17;;;18.17;;
42834;SDS011;29335;50.526;30.458;2022-11-20T15:28:39;23.63;;;16.70;;
42834;SDS011;29335;50.526;30.458;2022-11-20T15:31:13;19.73;;;14.25;;
42834;SDS011;29335;50.526;30.458;2022-11-20T15:33:40;24.77;;;18.30;;
42834;SDS011;29335;50.526;30.458;2022-11-20T15:36:07;22.02;;;16.95;;
42834;SDS011;29335;50.526;30.458;2022-11-20T15:38:33;25.40;;;18.17;;
42834;SDS011;29335;50.526;30.458;2022-11-20T15:40:59;23.20;;;17.67;;
42834;SDS011;29335;50.526;30.458;2022-11-20T15:43:25;27.27;;;20.30;;
42834;SDS011;29335;50.526;30.458;2022-11-20T15:45:54;24.17;;;18.42;;
42834;SDS011;29335;50.526;30.458;2022-11-20T15:48:29;25.35;;;17.10;;